createdAt,value
2022-09-12T00:00:23.570Z,101793.88
2022-09-12T00:02:54.615Z,101785.72
2022-09-12T00:05:23.369Z,101779.06
2022-09-12T00:07:51.004Z,101790.13
2022-09-12T00:10:18.903Z,101785.13
2022-09-12T00:12:46.727Z,101787.47
2022-09-12T00:15:14.479Z,101791.34
2022-09-12T00:17:42.153Z,101788.03
2022-09-12T00:20:12.545Z,101783.38
2022-09-12T00:22:40.077Z,101782.72
2022-09-12T00:25:08.487Z,101791.06
2022-09-12T00:27:36.138Z,101792.44
2022-09-12T00:30:03.745Z,101786.44
2022-09-12T00:32:31.293Z,101783.94
2022-09-12T00:34:58.826Z,101791.47
2022-09-12T00:37:27.725Z,101785.47
2022-09-12T00:39:55.342Z,101785.00
2022-09-12T00:42:22.929Z,101781.69
2022-09-12T00:44:52.821Z,101781.84
2022-09-12T00:47:31.967Z,101787.53
2022-09-12T00:50:06.987Z,101779.84
2022-09-12T00:52:42.888Z,101775.72
2022-09-12T00:55:14.025Z,101774.88
2022-09-12T00:57:46.502Z,101772.53
2022-09-12T01:00:16.900Z,101775.75
2022-09-12T01:02:46.586Z,101771.59
2022-09-12T01:05:14.831Z,101772.09
2022-09-12T01:07:48.422Z,101773.44
2022-09-12T01:10:16.190Z,101769.28
2022-09-12T01:12:44.723Z,101769.63
2022-09-12T01:15:12.342Z,101767.31
2022-09-12T01:17:49.977Z,101760.47
2022-09-12T01:20:47.105Z,101768.66
2022-09-12T01:23:53.186Z,101768.19
2022-09-12T01:26:45.194Z,101766.34
2022-09-12T01:29:28.331Z,101760.81
2022-09-12T01:32:07.629Z,101760.19
2022-09-12T01:34:45.818Z,101758.69
2022-09-12T01:37:19.538Z,101760.03
2022-09-12T01:39:58.069Z,101758.53
2022-09-12T01:42:34.449Z,101754.38
2022-09-12T01:45:08.878Z,101752.69
2022-09-12T01:47:41.626Z,101744.88
2022-09-12T01:50:14.011Z,101739.56
2022-09-12T01:52:46.465Z,101736.22
2022-09-12T01:55:18.914Z,101733.72
2022-09-12T01:57:52.645Z,101729.56
2022-09-12T02:00:21.266Z,101732.41
2022-09-12T02:02:55.654Z,101732.59
2022-09-12T02:05:29.285Z,101726.56
2022-09-12T02:08:06.861Z,101722.59
2022-09-12T02:10:43.035Z,101719.13
2022-09-12T02:13:15.939Z,101716.63
2022-09-12T02:15:48.186Z,101723.78
2022-09-12T02:18:19.410Z,101719.47
2022-09-12T02:20:49.504Z,101723.63
2022-09-12T02:23:22.007Z,101712.78
2022-09-12T02:25:55.627Z,101718.78
2022-09-12T02:28:27.517Z,101717.13
2022-09-12T02:31:04.266Z,101721.59
2022-09-12T02:33:44.323Z,101720.97
2022-09-12T02:36:21.886Z,101721.78
2022-09-12T02:38:49.813Z,101734.09
2022-09-12T02:41:20.490Z,101730.78
2022-09-12T02:43:49.266Z,101735.13
2022-09-12T02:46:22.382Z,101732.13
2022-09-12T02:48:51.749Z,101729.91
2022-09-12T02:51:23.529Z,101725.25
2022-09-12T02:53:51.617Z,101724.09
2022-09-12T02:56:24.858Z,101723.09
2022-09-12T02:58:53.275Z,101725.41
2022-09-12T03:01:31.041Z,101720.56
2022-09-12T03:04:29.550Z,101721.88
2022-09-12T03:07:10.861Z,101722.38
2022-09-12T03:09:44.035Z,101718.53
2022-09-12T03:12:24.971Z,101726.53
2022-09-12T03:15:13.259Z,101719.03
2022-09-12T03:17:57.420Z,101717.06
2022-09-12T03:20:42.250Z,101713.09
2022-09-12T03:23:19.478Z,101709.75
2022-09-12T03:25:52.688Z,101709.09
2022-09-12T03:28:22.995Z,101708.25
2022-09-12T03:30:53.381Z,101715.78
2022-09-12T03:33:23.073Z,101711.44
2022-09-12T03:35:52.721Z,101707.63
2022-09-12T03:38:20.940Z,101706.94
2022-09-12T03:40:52.709Z,101709.78
2022-09-12T03:43:22.205Z,101696.13
2022-09-12T03:45:52.056Z,101700.97
2022-09-12T03:48:19.978Z,101701.63
2022-09-12T03:50:47.494Z,101698.66
2022-09-12T03:53:17.512Z,101702.66
2022-09-12T03:55:45.231Z,101702.34
2022-09-12T03:58:12.785Z,101709.81
2022-09-12T04:00:40.927Z,101706.81
2022-09-12T04:03:08.437Z,101699.34
2022-09-12T04:05:36.694Z,101694.34
2022-09-12T04:08:04.245Z,101692.00
2022-09-12T04:10:33.706Z,101694.03
2022-09-12T04:13:01.233Z,101700.34
2022-09-12T04:15:28.765Z,101699.69
2022-09-12T04:17:56.292Z,101707.81
2022-09-12T04:20:23.874Z,101695.34
2022-09-12T04:22:51.437Z,101692.69
2022-09-12T04:25:19.010Z,101692.50
2022-09-12T04:27:48.242Z,101690.53
2022-09-12T04:30:16.138Z,101697.34
2022-09-12T04:32:43.668Z,101695.19
2022-09-12T04:35:12.239Z,101696.03
2022-09-12T04:37:39.790Z,101688.84
2022-09-12T04:40:08.379Z,101689.34
2022-09-12T04:42:35.970Z,101692.16
2022-09-12T04:45:06.185Z,101692.66
2022-09-12T04:47:33.723Z,101682.66
2022-09-12T04:50:01.286Z,101679.66
2022-09-12T04:52:29.353Z,101689.97
2022-09-12T04:54:57.266Z,101688.81
2022-09-12T04:57:25.849Z,101691.97
2022-09-12T04:59:53.387Z,101683.47
2022-09-12T05:02:22.517Z,101685.81
2022-09-12T05:04:50.097Z,101688.78
2022-09-12T05:07:17.634Z,101684.13
2022-09-12T05:09:45.195Z,101686.97
2022-09-12T05:12:13.304Z,101681.59
2022-09-12T05:14:40.938Z,101684.41
2022-09-12T05:17:08.465Z,101686.03
2022-09-12T05:19:37.688Z,101680.16
2022-09-12T05:22:06.651Z,101678.56
2022-09-12T05:24:35.113Z,101675.19
2022-09-12T05:27:03.387Z,101672.13
2022-09-12T05:29:31.002Z,101673.88
2022-09-12T05:31:58.546Z,101685.34
2022-09-12T05:34:27.809Z,101675.91
2022-09-12T05:36:56.782Z,101673.78
2022-09-12T05:39:24.543Z,101679.09
2022-09-12T05:41:52.072Z,101678.09
2022-09-12T05:44:19.946Z,101681.31
2022-09-12T05:46:50.755Z,101668.31
2022-09-12T05:49:18.307Z,101670.34
2022-09-12T05:51:46.566Z,101669.78
2022-09-12T05:54:19.403Z,101666.81
2022-09-12T05:56:47.957Z,101668.94
2022-09-12T05:59:17.286Z,101668.06
2022-09-12T06:01:45.819Z,101665.09
2022-09-12T06:04:13.589Z,101670.84
2022-09-12T06:06:45.029Z,101667.94
2022-09-12T06:09:15.685Z,101669.09
2022-09-12T06:11:43.331Z,101656.22
2022-09-12T06:14:12.728Z,101669.06
2022-09-12T06:16:40.470Z,101672.38
2022-09-12T06:19:13.752Z,101666.13
2022-09-12T06:21:41.448Z,101670.84
2022-09-12T06:24:09.286Z,101665.25
2022-09-12T06:26:38.295Z,101659.53
2022-09-12T06:29:05.989Z,101660.22
2022-09-12T06:31:35.426Z,101657.66
2022-09-12T06:34:05.654Z,101661.69
2022-09-12T06:36:36.228Z,101661.31
2022-09-12T06:39:06.286Z,101663.00
2022-09-12T06:41:34.184Z,101661.28
2022-09-12T06:44:03.907Z,101660.47
2022-09-12T06:46:32.038Z,101664.25
2022-09-12T06:49:00.630Z,101662.03
2022-09-12T06:51:29.262Z,101663.81
2022-09-12T06:53:58.200Z,101653.88
2022-09-12T06:56:26.989Z,101655.38
2022-09-12T06:58:56.970Z,101658.22
2022-09-12T07:01:27.739Z,101658.84
2022-09-12T07:03:57.299Z,101657.13
2022-09-12T07:06:31.508Z,101662.41
2022-09-12T07:08:59.505Z,101653.09
2022-09-12T07:11:29.257Z,101661.69
2022-09-12T07:13:57.811Z,101650.78
2022-09-12T07:16:26.955Z,101657.00
2022-09-12T07:18:56.397Z,101660.41
2022-09-12T07:21:24.037Z,101656.63
2022-09-12T07:23:52.697Z,101652.47
2022-09-12T07:26:20.250Z,101645.38
2022-09-12T07:28:52.001Z,101648.31
2022-09-12T07:31:20.618Z,101649.50
2022-09-12T07:33:54.449Z,101645.06
2022-09-12T07:36:24.590Z,101649.09
2022-09-12T07:38:57.533Z,101645.66
2022-09-12T07:41:27.481Z,101639.91
2022-09-12T07:43:57.025Z,101645.66
2022-09-12T07:46:25.386Z,101633.72
2022-09-12T07:48:56.355Z,101636.75
2022-09-12T07:51:24.922Z,101633.66
2022-09-12T07:53:52.737Z,101635.69
2022-09-12T07:56:22.007Z,101634.94
2022-09-12T07:58:51.011Z,101637.88
2022-09-12T08:01:20.011Z,101644.34
2022-09-12T08:03:49.109Z,101641.38
2022-09-12T08:06:21.000Z,101635.47
2022-09-12T08:08:49.158Z,101640.38
2022-09-12T08:11:18.398Z,101642.69
2022-09-12T08:13:49.640Z,101640.06
2022-09-12T08:16:22.825Z,101643.94
2022-09-12T08:18:51.073Z,101637.56
2022-09-12T08:21:21.931Z,101633.47
2022-09-12T08:23:54.010Z,101643.94
2022-09-12T08:26:21.586Z,101643.78
2022-09-12T08:28:49.701Z,101642.78
2022-09-12T08:31:19.809Z,101637.34
2022-09-12T08:33:47.848Z,101639.44
2022-09-12T08:36:17.767Z,101642.44
2022-09-12T08:38:48.606Z,101636.63
2022-09-12T08:41:27.199Z,101640.72
2022-09-12T08:44:08.786Z,101645.50
2022-09-12T08:46:44.687Z,101639.97
2022-09-12T08:49:16.290Z,101640.22
2022-09-12T08:51:44.048Z,101641.53
2022-09-12T08:54:24.738Z,101636.03
2022-09-12T08:56:55.011Z,101638.75
2022-09-12T08:59:22.929Z,101634.00
2022-09-12T09:01:55.444Z,101629.78
2022-09-12T09:04:38.626Z,101634.06
2022-09-12T09:07:23.545Z,101628.22
2022-09-12T09:10:07.974Z,101632.88
2022-09-12T09:12:43.234Z,101629.47
2022-09-12T09:15:40.983Z,101620.28
2022-09-12T09:18:16.627Z,101626.59
2022-09-12T09:20:50.043Z,101626.00
2022-09-12T09:23:23.159Z,101627.16
2022-09-12T09:25:57.559Z,101617.75
2022-09-12T09:28:31.964Z,101620.19
2022-09-12T09:30:59.795Z,101625.44
2022-09-12T09:33:34.705Z,101620.66
2022-09-12T09:36:14.818Z,101623.34
2022-09-12T09:38:49.397Z,101612.81
2022-09-12T09:41:36.256Z,101614.56
2022-09-12T09:44:04.267Z,101609.06
2022-09-12T09:46:32.760Z,101605.78
2022-09-12T09:49:03.815Z,101598.63
2022-09-12T09:51:36.043Z,101600.50
2022-09-12T09:54:12.409Z,101599.75
2022-09-12T09:56:43.132Z,101591.09
2022-09-12T09:59:12.726Z,101593.88
2022-09-12T10:01:46.303Z,101593.66
2022-09-12T10:04:20.314Z,101589.41
2022-09-12T10:06:48.459Z,101586.34
2022-09-12T10:09:23.094Z,101593.81
2022-09-12T10:11:53.094Z,101592.28
2022-09-12T10:14:36.688Z,101590.47
2022-09-12T10:17:23.556Z,101591.34
2022-09-12T10:20:10.506Z,101589.47
2022-09-12T10:22:39.630Z,101589.47
2022-09-12T10:25:13.052Z,101585.09
2022-09-12T10:27:43.170Z,101590.13
2022-09-12T10:30:19.200Z,101585.91
2022-09-12T10:32:50.571Z,101585.63
2022-09-12T10:35:21.742Z,101580.41
2022-09-12T10:37:56.701Z,101580.91
2022-09-12T10:40:26.404Z,101574.75
2022-09-12T10:42:57.318Z,101570.84
2022-09-12T10:45:29.011Z,101572.84
2022-09-12T10:48:02.087Z,101568.84
2022-09-12T10:50:33.234Z,101569.47
2022-09-12T10:53:15.838Z,101563.19
2022-09-12T10:56:02.152Z,101565.88
2022-09-12T10:58:50.049Z,101554.13
2022-09-12T11:01:33.828Z,101559.50
2022-09-12T11:04:15.616Z,101551.19
2022-09-12T11:06:55.670Z,101544.69
2022-09-12T11:09:29.634Z,101549.84
2022-09-12T11:12:09.525Z,101555.59
2022-09-12T11:14:52.406Z,101545.50
2022-09-12T11:17:31.920Z,101548.75
2022-09-12T11:20:33.371Z,101551.94
2022-09-12T11:23:26.615Z,101547.31
2022-09-12T11:26:00.964Z,101539.06
2022-09-12T11:28:36.456Z,101545.78
2022-09-12T11:31:34.501Z,101545.28
2022-09-12T11:34:09.198Z,101543.16
2022-09-12T11:36:44.265Z,101541.03
2022-09-12T11:39:15.461Z,101538.56
2022-09-12T11:41:44.981Z,101533.38
2022-09-12T11:44:18.514Z,101536.66
2022-09-12T11:46:51.555Z,101536.09
2022-09-12T11:49:34.788Z,101524.50
2022-09-12T11:52:07.618Z,101521.03
2022-09-12T11:54:41.532Z,101520.13
2022-09-12T11:57:16.054Z,101522.09
2022-09-12T11:59:49.419Z,101517.72
2022-09-12T12:02:26.377Z,101525.38
2022-09-12T12:05:04.819Z,101525.41
2022-09-12T12:07:45.377Z,101523.78
2022-09-12T12:10:26.618Z,101522.16
2022-09-12T12:12:56.441Z,101524.06
2022-09-12T12:15:26.551Z,101521.31
2022-09-12T12:18:08.732Z,101513.91
2022-09-12T12:20:37.236Z,101524.53
2022-09-12T12:23:05.045Z,101519.91
2022-09-12T12:25:52.751Z,101520.75
2022-09-12T12:28:53.796Z,101507.41
2022-09-12T12:31:21.366Z,101507.66
2022-09-12T12:33:56.562Z,101509.03
2022-09-12T12:36:40.182Z,101508.25
2022-09-12T12:39:48.051Z,101506.88
2022-09-12T12:43:04.429Z,101498.97
2022-09-12T12:46:03.692Z,101492.75
2022-09-12T12:48:36.283Z,101490.53
2022-09-12T12:51:25.437Z,101488.88
2022-09-12T12:53:54.554Z,101485.59
2022-09-12T12:56:39.776Z,101478.47
2022-09-12T12:59:18.622Z,101471.38
2022-09-12T13:01:54.754Z,101469.78
2022-09-12T13:04:25.898Z,101467.31
2022-09-12T13:07:05.837Z,101465.38
2022-09-12T13:09:39.453Z,101463.72
2022-09-12T13:12:10.014Z,101458.25
2022-09-12T13:14:52.637Z,101451.16
2022-09-12T13:17:26.235Z,101448.41
2022-09-12T13:20:26.130Z,101447.28
2022-09-12T13:22:53.281Z,101435.84
2022-09-12T13:25:24.774Z,101429.88
2022-09-12T13:28:01.173Z,101433.41
2022-09-12T13:30:30.111Z,101424.66
2022-09-12T13:33:00.082Z,101422.78
2022-09-12T13:35:37.403Z,101416.00
2022-09-12T13:38:15.908Z,101416.53
2022-09-12T13:40:56.990Z,101413.22
2022-09-12T13:43:37.101Z,101416.69
2022-09-12T13:46:04.829Z,101409.25
2022-09-12T13:48:32.460Z,101414.78
2022-09-12T13:51:02.467Z,101397.28
2022-09-12T13:53:37.826Z,101412.63
2022-09-12T13:56:05.423Z,101408.00
2022-09-12T13:58:35.106Z,101403.97
2022-09-12T14:01:06.840Z,101393.00
2022-09-12T14:03:58.998Z,101394.47
2022-09-12T14:06:27.510Z,101392.88
2022-09-12T14:08:58.279Z,101382.25
2022-09-12T14:11:28.802Z,101391.81
2022-09-12T14:13:57.110Z,101383.59
2022-09-12T14:16:27.271Z,101385.78
2022-09-12T14:18:54.889Z,101378.91
2022-09-12T14:21:34.905Z,101380.78
2022-09-12T14:24:08.498Z,101378.06
2022-09-12T14:26:37.451Z,101376.13
2022-09-12T14:29:07.484Z,101370.69
2022-09-12T14:31:37.617Z,101373.66
2022-09-12T14:34:13.519Z,101367.94
2022-09-12T14:36:45.809Z,101367.66
2022-09-12T14:39:22.835Z,101361.16
2022-09-12T14:41:50.905Z,101355.38
2022-09-12T14:44:21.954Z,101359.50
2022-09-12T14:46:51.141Z,101348.84
2022-09-12T14:49:22.401Z,101350.16
2022-09-12T14:51:56.389Z,101354.72
2022-09-12T14:54:39.378Z,101348.47
2022-09-12T14:57:17.808Z,101338.94
2022-09-12T14:59:45.323Z,101334.56
2022-09-12T15:02:24.054Z,101345.44
2022-09-12T15:04:53.227Z,101339.47
2022-09-12T15:07:32.474Z,101332.91
2022-09-12T15:10:03.432Z,101340.75
2022-09-12T15:12:31.029Z,101335.31
2022-09-12T15:15:03.229Z,101338.25
2022-09-12T15:17:30.771Z,101331.47
2022-09-12T15:19:58.328Z,101332.22
2022-09-12T15:22:26.916Z,101324.88
2022-09-12T15:24:56.310Z,101314.22
2022-09-12T15:27:26.665Z,101315.59
2022-09-12T15:29:54.402Z,101311.19
2022-09-12T15:32:24.706Z,101305.09
2022-09-12T15:34:52.671Z,101306.13
2022-09-12T15:37:21.758Z,101300.41
2022-09-12T15:39:49.857Z,101307.13
2022-09-12T15:42:18.797Z,101306.47
2022-09-12T15:44:47.666Z,101296.94
2022-09-12T15:47:15.374Z,101293.91
2022-09-12T15:49:42.905Z,101290.66
2022-09-12T15:52:15.687Z,101286.25
2022-09-12T15:54:44.022Z,101286.47
2022-09-12T15:57:11.670Z,101277.50
2022-09-12T15:59:39.556Z,101279.09
2022-09-12T16:02:10.247Z,101273.88
2022-09-12T16:04:38.424Z,101270.78
2022-09-12T16:07:06.106Z,101266.41
2022-09-12T16:09:34.362Z,101275.28
2022-09-12T16:12:02.258Z,101263.56
2022-09-12T16:14:29.827Z,101265.97
2022-09-12T16:16:57.369Z,101260.75
2022-09-12T16:19:26.265Z,101266.97
2022-09-12T16:21:53.778Z,101255.25
2022-09-12T16:24:21.439Z,101253.75
2022-09-12T16:26:49.297Z,101261.56
2022-09-12T16:29:17.069Z,101257.44
2022-09-12T16:31:44.829Z,101247.28
2022-09-12T16:34:13.666Z,101245.00
2022-09-12T16:36:45.122Z,101239.19
2022-09-12T16:39:12.650Z,101241.81
2022-09-12T16:41:42.070Z,101237.59
2022-09-12T16:44:10.149Z,101231.88
2022-09-12T16:46:37.883Z,101235.59
2022-09-12T16:49:06.350Z,101224.94
2022-09-12T16:51:35.776Z,101220.75
2022-09-12T16:54:05.085Z,101217.44
2022-09-12T16:56:32.652Z,101216.53
2022-09-12T16:59:00.184Z,101219.75
2022-09-12T17:01:28.502Z,101219.66
2022-09-12T17:03:57.370Z,101220.41
2022-09-12T17:06:26.122Z,101223.84
2022-09-12T17:08:55.377Z,101224.31
2022-09-12T17:11:26.640Z,101216.13
2022-09-12T17:14:05.500Z,101210.66
2022-09-12T17:16:34.944Z,101201.88
2022-09-12T17:19:02.577Z,101196.94
2022-09-12T17:21:30.266Z,101187.94
2022-09-12T17:23:59.086Z,101185.16
2022-09-12T17:26:28.203Z,101181.06
2022-09-12T17:28:55.836Z,101186.38
2022-09-12T17:31:23.457Z,101184.16
2022-09-12T17:33:51.065Z,101184.66
2022-09-12T17:36:18.956Z,101185.97
2022-09-12T17:38:47.283Z,101176.69
2022-09-12T17:41:17.540Z,101167.69
2022-09-12T17:43:49.953Z,101170.31
2022-09-12T17:46:18.052Z,101172.69
2022-09-12T17:48:45.682Z,101167.19
2022-09-12T17:51:14.917Z,101167.41
2022-09-12T17:53:43.177Z,101158.19
2022-09-12T17:56:12.225Z,101151.03
2022-09-12T17:58:40.115Z,101146.91
2022-09-12T18:01:30.359Z,101148.44
2022-09-12T18:04:00.452Z,101134.84
2022-09-12T18:06:28.681Z,101137.22
2022-09-12T18:08:56.561Z,101135.22
2022-09-12T18:11:24.073Z,101130.31
2022-09-12T18:13:51.607Z,101128.09
2022-09-12T18:16:20.913Z,101128.84
2022-09-12T18:18:50.902Z,101119.34
2022-09-12T18:21:19.738Z,101118.75
2022-09-12T18:23:47.655Z,101124.63
2022-09-12T18:26:15.424Z,101125.13
2022-09-12T18:28:44.873Z,101115.97
2022-09-12T18:31:15.072Z,101116.22
2022-09-12T18:33:44.162Z,101112.69
2022-09-12T18:36:13.773Z,101102.94
2022-09-12T18:38:42.223Z,101106.69
2022-09-12T18:41:11.511Z,101106.69
2022-09-12T18:43:39.467Z,101109.97
2022-09-12T18:46:08.544Z,101104.81
2022-09-12T18:48:36.979Z,101103.97
2022-09-12T18:51:08.782Z,101110.22
2022-09-12T18:53:37.694Z,101098.56
2022-09-12T18:56:08.519Z,101102.09
2022-09-12T18:58:36.349Z,101093.44
2022-09-12T19:01:10.627Z,101092.84
2022-09-12T19:03:38.170Z,101083.09
2022-09-12T19:06:12.246Z,101083.94
2022-09-12T19:08:40.463Z,101084.97
2022-09-12T19:11:08.723Z,101075.47
2022-09-12T19:13:38.127Z,101073.00
2022-09-12T19:16:08.886Z,101060.81
2022-09-12T19:18:36.897Z,101062.13
2022-09-12T19:21:05.250Z,101059.06
2022-09-12T19:23:35.306Z,101060.03
2022-09-12T19:26:05.530Z,101056.44
2022-09-12T19:28:33.547Z,101053.66
2022-09-12T19:31:01.287Z,101057.53
2022-09-12T19:33:29.228Z,101057.66
2022-09-12T19:35:56.766Z,101057.31
2022-09-12T19:38:24.285Z,101053.47
2022-09-12T19:40:59.522Z,101053.38
2022-09-12T19:43:27.905Z,101042.22
2022-09-12T19:45:56.240Z,101042.47
2022-09-12T19:48:24.230Z,101040.00
2022-09-12T19:50:51.897Z,101031.06
2022-09-12T19:53:19.545Z,101027.56
2022-09-12T19:55:47.293Z,101032.72
2022-09-12T19:58:16.165Z,101023.81
2022-09-12T20:00:43.733Z,101023.56
2022-09-12T20:03:11.282Z,101027.06
2022-09-12T20:05:42.612Z,101022.75
2022-09-12T20:08:10.727Z,101016.53
2022-09-12T20:10:38.290Z,101011.13
2022-09-12T20:13:06.636Z,100999.75
2022-09-12T20:15:35.697Z,101003.25
2022-09-12T20:18:03.323Z,100992.47
2022-09-12T20:20:31.866Z,100979.22
2022-09-12T20:22:59.402Z,100982.97
2022-09-12T20:25:26.934Z,100980.25
2022-09-12T20:27:59.464Z,100970.53
2022-09-12T20:30:27.722Z,100965.38
2022-09-12T20:32:56.585Z,100968.91
2022-09-12T20:35:24.150Z,100964.31
2022-09-12T20:37:51.653Z,100963.50
2022-09-12T20:40:19.826Z,100957.06
2022-09-12T20:42:47.380Z,100948.34
2022-09-12T20:45:15.057Z,100950.81
2022-09-12T20:47:42.922Z,100952.94
2022-09-12T20:50:11.984Z,100939.44
2022-09-12T20:52:39.498Z,100941.91
2022-09-12T20:55:07.662Z,100948.13
2022-09-12T20:57:35.181Z,100942.72
2022-09-12T21:00:03.565Z,100937.31
2022-09-12T21:02:31.207Z,100938.63
2022-09-12T21:04:58.800Z,100928.16
2022-09-12T21:07:27.694Z,100924.41
2022-09-12T21:09:55.214Z,100917.94
2022-09-12T21:12:22.826Z,100917.69
2022-09-12T21:14:50.357Z,100909.03
2022-09-12T21:17:18.222Z,100903.63
2022-09-12T21:19:45.754Z,100906.31
2022-09-12T21:22:13.262Z,100896.09
2022-09-12T21:24:42.190Z,100901.50
2022-09-12T21:27:10.066Z,100897.19
2022-09-12T21:29:37.954Z,100896.09
2022-09-12T21:32:06.049Z,100875.31
2022-09-12T21:34:33.602Z,100883.19
2022-09-12T21:37:01.129Z,100874.00
2022-09-12T21:39:28.661Z,100869.91
2022-09-12T21:41:57.535Z,100869.09
2022-09-12T21:44:25.045Z,100864.78
2022-09-12T21:46:52.610Z,100855.84
2022-09-12T21:49:20.143Z,100863.13
2022-09-12T21:51:47.877Z,100866.41
2022-09-12T21:54:15.720Z,100857.81
2022-09-12T21:56:43.321Z,100855.38
2022-09-12T21:59:12.198Z,100846.94
2022-09-12T22:01:39.783Z,100852.06
2022-09-12T22:04:07.375Z,100841.28
2022-09-12T22:06:34.917Z,100838.34
2022-09-12T22:09:02.660Z,100835.88
2022-09-12T22:11:30.545Z,100839.41
2022-09-12T22:13:58.221Z,100834.25
2022-09-12T22:16:27.241Z,100835.09
2022-09-12T22:18:54.797Z,100830.75
2022-09-12T22:21:24.249Z,100828.03
2022-09-12T22:24:09.506Z,100822.38
2022-09-12T22:26:44.430Z,100820.75
2022-09-12T22:29:13.231Z,100816.19
2022-09-12T22:31:42.475Z,100806.44
2022-09-12T22:34:10.058Z,100811.84
2022-09-12T22:36:39.145Z,100808.56
2022-09-12T22:39:07.266Z,100806.66
2022-09-12T22:41:34.862Z,100804.22
2022-09-12T22:44:02.581Z,100801.47
2022-09-12T22:46:30.843Z,100804.66
2022-09-12T22:48:59.857Z,100801.69
2022-09-12T22:51:27.403Z,100810.03
2022-09-12T22:53:56.382Z,100811.91
2022-09-12T22:56:24.795Z,100812.16
2022-09-12T22:58:52.396Z,100813.72
2022-09-12T23:01:20.165Z,100824.19
2022-09-12T23:03:47.757Z,100831.72
2022-09-12T23:06:16.834Z,100821.63
2022-09-12T23:08:44.715Z,100829.03
2022-09-12T23:11:13.798Z,100827.66
2022-09-12T23:13:43.694Z,100820.03
2022-09-12T23:16:16.662Z,100821.84
2022-09-12T23:18:44.314Z,100818.47
2022-09-12T23:21:13.399Z,100826.25
2022-09-12T23:23:42.519Z,100828.81
2022-09-12T23:26:12.519Z,100823.34
2022-09-12T23:28:40.847Z,100820.28
2022-09-12T23:31:09.721Z,100812.91
2022-09-12T23:33:37.754Z,100807.09
2022-09-12T23:36:07.091Z,100789.31
2022-09-12T23:38:36.203Z,100794.25
2022-09-12T23:41:05.862Z,100770.97
2022-09-12T23:43:33.989Z,100759.75
2022-09-12T23:46:01.841Z,100745.78
2022-09-12T23:48:29.526Z,100734.69
2022-09-12T23:50:57.079Z,100716.81
2022-09-12T23:53:25.017Z,100704.28
2022-09-12T23:55:53.161Z,100701.25
2022-09-12T23:58:22.708Z,100717.31
